Time;durP1;ratioP1;P1;durP2;ratioP2;P2;SDS_P1;SDS_P2;PMS_P1;PMS_P2;Temp;Humidity;BMP_temperature;BMP_pressure;BME280_temperature;BME280_humidity;BME280_pressure;Samples;Min_cycle;Max_cycle;Signal;HPM_P1;HPM_P2
2023/01/01 00:01:52;;;;;;;;;;;;;;;14.67;70.54;100864.53;4997087;28;19997;-64
2023/01/01 00:04:17;;;;;;;;;;;;;;;14.67;70.07;100822.78;4992232;28;20033;-63
2023/01/01 00:06:45;;;;;;;;;;;;;;;14.68;70.52;100830.53;4994267;28;19992;-64
2023/01/01 00:11:54;;;;;;;;;;;;;;;14.68;70.37;100843.56;4994899;28;20459;-64
2023/01/01 00:14:19;;;;;;;;;;;;;;;14.74;68.26;100850.31;4993809;28;19941;-64
2023/01/01 00:16:44;;;;;;;;;;;;;;;14.76;68.86;100844.13;4996794;28;20364;-64
2023/01/01 00:19:09;;;;;;;;;;;;;;;14.77;69.88;100843.22;4997950;28;19932;-64
2023/01/01 00:21:35;;;;;;;;;;;;;;;14.79;67.92;100862.28;4991929;28;19984;-64
2023/01/01 00:24:00;;;;;;;;;;;;;;;14.79;69.43;100856.19;4992415;28;20364;-63
2023/01/01 00:26:25;;;;;;;;;;;;;;;14.84;67.89;100860.31;4987786;28;19921;-64
2023/01/01 00:28:50;;;;;;;;;;;;;;;14.76;70.28;100857.16;4996935;28;20296;-64
2023/01/01 00:31:17;;;;;;;;;;;;;;;14.77;65.42;100843.22;4993220;28;19937;-64
2023/01/01 00:33:42;;;;;;;;;;;;;;;14.77;66.09;100858.00;4986640;28;19917;-64
2023/01/01 00:36:11;;;;;;;;;;;;;;;14.80;67.52;100861.38;4997978;28;19987;-64
2023/01/01 00:38:37;;;;;;;;;;;;;;;14.76;69.95;100853.69;4995574;28;19937;-64
2023/01/01 00:41:02;;;;;;;;;;;;;;;14.73;67.62;100841.66;4988762;28;19960;-64
2023/01/01 00:43:28;;;;;;;;;;;;;;;14.69;68.42;100845.28;5000822;28;19921;-64
2023/01/01 00:45:53;;;;;;;;;;;;;;;14.66;70.06;100841.97;4998029;28;19914;-64
2023/01/01 00:48:20;;;;;;;;;;;;;;;14.62;68.50;100852.50;4996695;28;19921;-64
2023/01/01 00:50:45;;;;;;;;;;;;;;;14.60;68.49;100838.66;4997029;28;19944;-64
2023/01/01 00:53:10;;;;;;;;;;;;;;;14.61;66.40;100835.16;4997415;28;19960;-64
2023/01/01 00:55:37;;;;;;;;;;;;;;;14.70;65.17;100833.94;4995561;28;19913;-64
2023/01/01 00:58:03;;;;;;;;;;;;;;;14.75;65.41;100846.78;4986353;28;19956;-63
2023/01/01 01:00:28;;;;;;;;;;;;;;;14.73;65.60;100843.41;4995243;28;19922;-63
2023/01/01 01:02:53;;;;;;;;;;;;;;;14.72;66.96;100852.13;4997041;28;20001;-64
2023/01/01 01:05:18;;;;;;;;;;;;;;;14.73;66.35;100859.06;4997775;28;19913;-64
2023/01/01 01:07:43;;;;;;;;;;;;;;;14.76;65.14;100856.31;4991863;28;19921;-64
2023/01/01 01:10:09;;;;;;;;;;;;;;;14.73;66.25;100865.13;4992691;28;19926;-64
2023/01/01 01:12:34;;;;;;;;;;;;;;;14.74;67.25;100861.59;4995504;28;19964;-64
2023/01/01 01:15:00;;;;;;;;;;;;;;;14.70;67.82;100872.22;4994948;28;19914;-64
2023/01/01 01:17:25;;;;;;;;;;;;;;;14.69;67.39;100865.28;4996628;28;20434;-64
2023/01/01 01:19:50;;;;;;;;;;;;;;;14.67;66.76;100873.19;4996690;28;20273;-64
2023/01/01 01:22:16;;;;;;;;;;;;;;;14.66;68.81;100862.81;4991125;28;19921;-64
2023/01/01 01:24:41;;;;;;;;;;;;;;;14.62;67.51;100844.69;4997908;28;19910;-64
2023/01/01 01:27:06;;;;;;;;;;;;;;;14.62;68.38;100860.31;4978492;28;20002;-64
2023/01/01 01:29:31;;;;;;;;;;;;;;;14.63;67.69;100849.00;4992011;28;19921;-64
2023/01/01 01:31:57;;;;;;;;;;;;;;;14.60;65.72;100869.16;4997934;28;19910;-64
2023/01/01 01:34:22;;;;;;;;;;;;;;;14.62;67.15;100865.53;4995171;28;19917;-64
2023/01/01 01:36:48;;;;;;;;;;;;;;;14.58;67.66;100874.41;4978759;28;20430;-64
2023/01/01 01:39:13;;;;;;;;;;;;;;;14.57;69.28;100870.09;4996019;28;19933;-64
2023/01/01 01:41:38;;;;;;;;;;;;;;;14.51;67.48;100896.44;4996618;28;19910;-64
2023/01/01 01:44:27;;;;;;;;;;;;;;;14.55;67.92;100895.41;4987614;28;19920;-64
2023/01/01 01:46:52;;;;;;;;;;;;;;;14.53;67.34;100893.78;4990496;28;19910;-64
2023/01/01 01:49:26;;;;;;;;;;;;;;;14.45;68.52;100883.63;4996390;28;19984;-64
2023/01/01 01:51:51;;;;;;;;;;;;;;;14.47;67.77;100870.50;4997312;28;19921;-64
2023/01/01 01:54:19;;;;;;;;;;;;;;;14.43;68.71;100879.38;4979619;28;19977;-64
2023/01/01 01:56:52;;;;;;;;;;;;;;;14.39;69.84;100889.09;4978993;28;19924;-64
2023/01/01 01:59:19;;;;;;;;;;;;;;;14.35;70.13;100900.50;4990709;28;20339;-64
2023/01/01 02:01:44;;;;;;;;;;;;;;;14.33;69.39;100904.09;4995257;28;19914;-64
2023/01/01 02:04:10;;;;;;;;;;;;;;;14.28;67.61;100896.44;4996153;28;20289;-64
2023/01/01 02:06:37;;;;;;;;;;;;;;;14.34;69.00;100897.94;4996926;28;20387;-64
2023/01/01 02:09:03;;;;;;;;;;;;;;;14.29;64.68;100911.16;4996833;28;19926;-64
2023/01/01 02:11:29;;;;;;;;;;;;;;;14.27;67.34;100918.19;4996586;28;19917;-63
2023/01/01 02:13:55;;;;;;;;;;;;;;;14.24;68.77;100924.38;4985306;28;19910;-64
2023/01/01 02:16:32;;;;;;;;;;;;;;;14.22;67.91;100927.94;4993342;28;19956;-64
2023/01/01 02:19:17;;;;;;;;;;;;;;;14.24;68.43;100920.94;4996620;28;19906;-64
2023/01/01 02:21:58;;;;;;;;;;;;;;;14.16;69.34;100916.00;4969796;28;19941;-64
2023/01/01 02:24:41;;;;;;;;;;;;;;;14.12;68.59;100921.41;4978765;28;19906;-64
2023/01/01 02:27:16;;;;;;;;;;;;;;;14.16;67.66;100929.03;4988297;28;20004;-64
2023/01/01 02:29:44;;;;;;;;;;;;;;;14.12;68.84;100913.56;4996126;28;19960;-64
2023/01/01 02:32:11;;;;;;;;;;;;;;;14.11;70.46;100909.25;4995310;28;19920;-64
2023/01/01 02:34:45;;;;;;;;;;;;;;;14.10;68.92;100916.22;4990891;28;20284;-64
2023/01/01 02:37:13;;;;;;;;;;;;;;;14.07;69.37;100905.91;4977392;28;20017;-65
2023/01/01 02:39:43;;;;;;;;;;;;;;;14.07;68.99;100911.13;4996397;28;19921;-64
2023/01/01 02:42:08;;;;;;;;;;;;;;;13.99;67.57;100905.31;4995357;28;19917;-64
2023/01/01 02:44:36;;;;;;;;;;;;;;;13.97;70.11;100909.78;4995413;28;19959;-64
2023/01/01 02:47:05;;;;;;;;;;;;;;;13.97;68.98;100908.91;4995560;28;20012;-64
2023/01/01 02:49:30;;;;;;;;;;;;;;;13.93;69.92;100907.31;4995464;28;19918;-64
2023/01/01 02:52:06;;;;;;;;;;;;;;;13.92;68.05;100909.06;4994923;28;19914;-64
2023/01/01 02:54:36;;;;;;;;;;;;;;;13.86;69.09;100904.06;4982625;28;20296;-64
2023/01/01 02:57:12;;;;;;;;;;;;;;;13.88;67.86;100915.31;4987797;28;20368;-64
2023/01/01 03:00:26;;;;;;;;;;;;;;;13.87;69.96;100928.38;4991243;28;20340;-64
2023/01/01 03:02:51;;;;;;;;;;;;;;;13.89;69.08;100932.66;4982435;28;19913;-64
2023/01/01 03:05:28;;;;;;;;;;;;;;;13.88;68.10;100941.38;4996236;28;19932;-64
2023/01/01 03:08:02;;;;;;;;;;;;;;;13.88;69.56;100925.72;4995123;28;20344;-64
2023/01/01 03:10:39;;;;;;;;;;;;;;;13.88;67.78;100940.50;4994786;28;19930;-64
2023/01/01 03:13:28;;;;;;;;;;;;;;;13.89;68.32;100950.88;4995171;28;19953;-64
2023/01/01 03:15:54;;;;;;;;;;;;;;;13.86;69.26;100956.19;4994747;28;19921;-64
2023/01/01 03:18:23;;;;;;;;;;;;;;;13.85;68.50;100937.09;4994937;28;19921;-64
2023/01/01 03:20:50;;;;;;;;;;;;;;;13.83;69.40;100938.06;4994516;28;19980;-64
2023/01/01 03:23:20;;;;;;;;;;;;;;;13.82;68.95;100954.59;4995375;28;20004;-64
2023/01/01 03:25:47;;;;;;;;;;;;;;;13.89;67.87;100956.09;4991829;28;19961;-64
2023/01/01 03:28:15;;;;;;;;;;;;;;;13.87;69.45;100951.84;4994951;28;20444;-64
2023/01/01 03:30:42;;;;;;;;;;;;;;;13.93;68.07;100955.06;4989368;28;19993;-64
2023/01/01 03:33:14;;;;;;;;;;;;;;;13.89;68.64;100947.44;4993704;28;19937;-64
2023/01/01 03:35:39;;;;;;;;;;;;;;;13.85;68.68;100968.38;4995452;28;19920;-64
2023/01/01 03:38:13;;;;;;;;;;;;;;;13.81;70.03;100961.56;4993713;28;19906;-64
2023/01/01 03:40:39;;;;;;;;;;;;;;;13.79;70.24;100954.72;4992620;28;20387;-67
2023/01/01 03:43:08;;;;;;;;;;;;;;;13.78;70.40;100959.06;4993280;28;20372;-67
2023/01/01 03:45:38;;;;;;;;;;;;;;;13.79;69.20;100952.09;4993572;28;19910;-67
2023/01/01 03:48:04;;;;;;;;;;;;;;;13.79;69.75;100954.72;4986723;28;19921;-67
2023/01/01 03:50:55;;;;;;;;;;;;;;;13.82;69.29;100962.44;4990614;28;19918;-67
2023/01/01 03:53:40;;;;;;;;;;;;;;;13.81;70.80;100981.56;4991413;28;19917;-67
2023/01/01 03:56:05;;;;;;;;;;;;;;;13.83;69.88;100987.59;4993819;28;19917;-67
2023/01/01 03:58:34;;;;;;;;;;;;;;;13.80;70.34;100983.31;4990143;28;19997;-67
2023/01/01 04:01:18;;;;;;;;;;;;;;;13.77;70.96;100987.81;4992778;28;19918;-67
2023/01/01 04:03:43;;;;;;;;;;;;;;;13.74;70.59;100980.94;4993646;28;19909;-67
2023/01/01 04:06:10;;;;;;;;;;;;;;;13.73;70.13;100975.75;4990119;28;19976;-67
2023/01/01 04:08:35;;;;;;;;;;;;;;;13.81;68.58;100978.97;4987474;28;19921;-64
2023/01/01 04:12:00;;;;;;;;;;;;;;;13.81;69.88;100986.78;4986897;28;19983;-64
2023/01/01 04:13:49;;;;;;;;;;;;;;;13.76;69.46;100997.38;4982164;28;19909;-63
2023/01/01 04:16:15;;;;;;;;;;;;;;;13.76;70.58;100996.50;4994607;28;19982;-63
2023/01/01 04:18:40;;;;;;;;;;;;;;;13.84;69.88;100981.47;4995037;28;19945;-63
2023/01/01 04:21:05;;;;;;;;;;;;;;;13.81;70.21;101000.66;4989262;28;19961;-63
2023/01/01 04:23:30;;;;;;;;;;;;;;;13.78;71.26;100997.31;4991677;28;19921;-63
2023/01/01 04:25:56;;;;;;;;;;;;;;;13.79;70.33;100997.25;4983115;28;19902;-63
2023/01/01 04:28:21;;;;;;;;;;;;;;;13.73;70.63;100999.22;4975671;28;20299;-64
2023/01/01 04:30:46;;;;;;;;;;;;;;;13.72;71.25;100997.50;4985621;28;19916;-63
2023/01/01 04:33:11;;;;;;;;;;;;;;;13.71;70.36;100998.44;4995290;28;19956;-63
2023/01/01 04:35:37;;;;;;;;;;;;;;;13.69;71.22;100984.59;4992363;28;19913;-63
2023/01/01 04:38:02;;;;;;;;;;;;;;;13.66;70.26;100987.28;4997356;28;19976;-63
2023/01/01 04:40:27;;;;;;;;;;;;;;;13.65;71.00;100991.66;4997917;28;19952;-63
2023/01/01 04:42:53;;;;;;;;;;;;;;;13.64;70.21;100992.59;4997746;28;19913;-63
2023/01/01 04:45:18;;;;;;;;;;;;;;;13.62;71.83;101011.75;4997962;28;19909;-63
2023/01/01 04:47:44;;;;;;;;;;;;;;;13.60;71.55;101009.19;4997273;28;19932;-63
2023/01/01 04:50:09;;;;;;;;;;;;;;;13.60;72.54;101014.41;4996715;28;19991;-63
2023/01/01 04:52:34;;;;;;;;;;;;;;;13.62;72.06;101010.00;4996447;28;19913;-63
2023/01/01 04:54:59;;;;;;;;;;;;;;;13.62;72.27;101006.56;4985075;28;20287;-63
2023/01/01 04:57:25;;;;;;;;;;;;;;;13.63;72.28;101018.69;4984642;28;20257;-62
2023/01/01 04:59:50;;;;;;;;;;;;;;;13.62;73.07;101023.03;4979889;28;20387;-63
2023/01/01 05:02:15;;;;;;;;;;;;;;;13.65;71.79;101024.66;4988660;28;19921;-63
2023/01/01 05:04:40;;;;;;;;;;;;;;;13.66;71.93;101019.41;4998232;28;19914;-63
2023/01/01 05:07:05;;;;;;;;;;;;;;;13.65;72.75;101027.28;4987732;28;19914;-63
2023/01/01 05:09:31;;;;;;;;;;;;;;;13.67;71.55;101035.91;4978450;28;19920;-63
2023/01/01 05:11:56;;;;;;;;;;;;;;;13.67;72.58;101041.09;4978626;28;19917;-63
2023/01/01 05:14:21;;;;;;;;;;;;;;;13.68;72.82;101053.22;4996014;28;19910;-63
2023/01/01 05:16:47;;;;;;;;;;;;;;;13.67;72.97;101049.78;4995733;28;19929;-63
2023/01/01 05:19:12;;;;;;;;;;;;;;;13.68;73.51;101048.88;4995532;28;19945;-63
2023/01/01 05:21:44;;;;;;;;;;;;;;;13.67;73.43;101047.16;4986594;28;20399;-63
2023/01/01 05:24:09;;;;;;;;;;;;;;;13.65;73.72;101056.78;4995315;28;20291;-63
2023/01/01 05:26:36;;;;;;;;;;;;;;;13.65;73.67;101081.97;4986755;28;20356;-63
2023/01/01 05:29:02;;;;;;;;;;;;;;;13.63;73.17;101078.59;4995482;28;19973;-63
2023/01/01 05:31:29;;;;;;;;;;;;;;;13.61;74.98;101096.00;4996676;28;20003;-63
2023/01/01 05:33:56;;;;;;;;;;;;;;;13.60;74.65;101099.50;4997593;28;19909;-63
2023/01/01 05:36:22;;;;;;;;;;;;;;;13.61;74.16;101090.81;4997727;28;19906;-63
2023/01/01 05:38:48;;;;;;;;;;;;;;;13.57;75.00;101095.28;4979299;28;19917;-63
2023/01/01 05:41:14;;;;;;;;;;;;;;;13.56;75.37;101090.97;4986279;28;19913;-63
2023/01/01 05:43:40;;;;;;;;;;;;;;;13.54;75.45;101095.34;4995715;28;19937;-63
2023/01/01 05:46:25;;;;;;;;;;;;;;;13.53;74.23;101096.25;4995156;28;20352;-63
2023/01/01 05:48:52;;;;;;;;;;;;;;;13.58;73.85;101090.91;4995826;28;20001;-62
2023/01/01 05:51:24;;;;;;;;;;;;;;;13.55;75.05;101104.88;4997448;28;19937;-63
2023/01/01 05:53:50;;;;;;;;;;;;;;;13.55;75.27;101114.44;4990295;28;19917;-63
2023/01/01 05:56:15;;;;;;;;;;;;;;;13.55;74.13;101117.03;4996458;28;20434;-63
2023/01/01 05:58:41;;;;;;;;;;;;;;;13.54;75.03;101121.41;4995629;28;20296;-63
2023/01/01 06:01:06;;;;;;;;;;;;;;;13.50;75.14;101130.22;4997208;28;20369;-63
2023/01/01 06:03:31;;;;;;;;;;;;;;;13.49;75.31;101138.06;4996102;28;20277;-63
2023/01/01 06:05:56;;;;;;;;;;;;;;;13.44;76.18;101144.25;4997420;28;20287;-63
2023/01/01 06:08:22;;;;;;;;;;;;;;;13.44;76.36;101153.84;4994262;28;20355;-63
2023/01/01 06:10:47;;;;;;;;;;;;;;;13.42;76.80;101150.44;4994017;28;20295;-63
2023/01/01 06:13:12;;;;;;;;;;;;;;;13.37;77.11;101152.34;4996125;28;19909;-63
2023/01/01 06:15:37;;;;;;;;;;;;;;;13.35;77.36;101154.97;4996633;28;19937;-63
2023/01/01 06:18:02;;;;;;;;;;;;;;;13.33;77.00;101163.72;4996661;28;19909;-63
2023/01/01 06:20:28;;;;;;;;;;;;;;;13.34;77.40;101157.63;4993236;28;20369;-63
2023/01/01 06:22:53;;;;;;;;;;;;;;;13.33;76.91;101163.72;4986610;28;19910;-63
2023/01/01 06:25:18;;;;;;;;;;;;;;;13.33;77.57;101169.78;4994654;28;19914;-63
2023/01/01 06:27:44;;;;;;;;;;;;;;;13.33;78.26;101179.34;4995771;28;19909;-63
2023/01/01 06:30:09;;;;;;;;;;;;;;;13.31;79.19;101187.19;4996339;28;19917;-63
2023/01/01 06:32:34;;;;;;;;;;;;;;;13.27;79.25;101195.16;4995662;28;19920;-63
2023/01/01 06:34:59;;;;;;;;;;;;;;;13.23;80.66;101225.63;4995521;28;19917;-63
2023/01/01 06:37:26;;;;;;;;;;;;;;;13.09;82.22;101237.28;4986815;28;19914;-63
2023/01/01 06:39:51;;;;;;;;;;;;;;;12.78;83.85;101242.47;4994004;28;19953;-63
2023/01/01 06:42:17;;;;;;;;;;;;;;;12.47;86.94;101256.25;4995246;28;19933;-63
2023/01/01 06:44:42;;;;;;;;;;;;;;;12.26;86.82;101254.19;4994605;28;19932;-63
2023/01/01 06:47:07;;;;;;;;;;;;;;;12.10;89.01;101242.44;4995657;28;20360;-63
2023/01/01 06:49:32;;;;;;;;;;;;;;;12.00;89.48;101238.34;4996012;28;20259;-63
2023/01/01 06:51:57;;;;;;;;;;;;;;;11.95;88.87;101234.97;4982413;28;19914;-63
2023/01/01 06:54:23;;;;;;;;;;;;;;;11.96;86.99;101240.16;4993406;28;20400;-63
2023/01/01 06:56:48;;;;;;;;;;;;;;;11.93;88.38;101244.56;4995240;28;19910;-63
2023/01/01 06:59:14;;;;;;;;;;;;;;;11.91;90.05;101264.53;4994882;28;20280;-63
2023/01/01 07:01:39;;;;;;;;;;;;;;;11.91;89.13;101261.94;4995003;28;20380;-63
2023/01/01 07:04:07;;;;;;;;;;;;;;;11.90;89.75;101268.00;4994696;28;20384;-64
2023/01/01 07:06:32;;;;;;;;;;;;;;;11.91;88.39;101270.59;4992776;28;19910;-64
2023/01/01 07:08:58;;;;;;;;;;;;;;;11.92;89.55;101281.84;4993058;28;19940;-63
2023/01/01 07:11:23;;;;;;;;;;;;;;;11.93;90.50;101270.56;4992444;28;20008;-64
2023/01/01 07:13:49;;;;;;;;;;;;;;;11.97;90.68;101274.78;4995409;28;20364;-63
2023/01/01 07:16:14;;;;;;;;;;;;;;;11.95;88.01;101271.34;4994385;28;19902;-64
2023/01/01 07:18:40;;;;;;;;;;;;;;;11.88;92.09;101301.81;4983285;28;19956;-64
2023/01/01 07:21:06;;;;;;;;;;;;;;;11.88;89.99;101300.06;4993459;28;20292;-63
2023/01/01 07:23:33;;;;;;;;;;;;;;;11.86;90.71;101296.66;4993618;28;19937;-63
2023/01/01 07:25:58;;;;;;;;;;;;;;;11.84;92.61;101308.81;4993903;28;19909;-63
2023/01/01 07:28:24;;;;;;;;;;;;;;;11.83;92.33;101304.53;4988943;28;19914;-63
2023/01/01 07:30:51;;;;;;;;;;;;;;;11.83;91.03;101306.25;4987219;28;20380;-63
2023/01/01 07:33:17;;;;;;;;;;;;;;;11.79;92.85;101309.81;4994115;28;20012;-63
2023/01/01 07:35:43;;;;;;;;;;;;;;;11.77;90.86;101306.41;4994495;28;19914;-64
2023/01/01 07:38:09;;;;;;;;;;;;;;;11.75;91.79;101313.34;4993695;28;19920;-64
2023/01/01 07:40:34;;;;;;;;;;;;;;;11.73;91.07;101315.13;4991199;28;19914;-63
2023/01/01 07:42:59;;;;;;;;;;;;;;;11.73;90.32;101317.72;4992050;28;19921;-63
2023/01/01 07:45:24;;;;;;;;;;;;;;;11.72;90.67;101331.56;4994222;28;19916;-63
2023/01/01 07:47:51;;;;;;;;;;;;;;;11.64;92.00;101323.94;4991763;28;19924;-64
2023/01/01 07:50:17;;;;;;;;;;;;;;;11.61;91.83;101330.91;4993406;28;19960;-63
2023/01/01 07:52:42;;;;;;;;;;;;;;;11.55;91.25;101342.28;4991961;28;19960;-63
2023/01/01 07:55:11;;;;;;;;;;;;;;;11.52;91.25;101336.31;4993767;28;19996;-64
2023/01/01 07:57:36;;;;;;;;;;;;;;;11.45;91.88;101346.81;4994360;28;19909;-64
2023/01/01 08:00:01;;;;;;;;;;;;;;;11.39;91.99;101349.53;4993244;28;19937;-64
2023/01/01 08:02:26;;;;;;;;;;;;;;;11.36;91.56;101365.16;4991466;28;19960;-64
2023/01/01 08:04:51;;;;;;;;;;;;;;;11.25;92.86;101374.03;4993863;28;19921;-63
2023/01/01 08:07:17;;;;;;;;;;;;;;;11.15;93.72;101388.03;4990712;28;19913;-64
2023/01/01 08:09:42;;;;;;;;;;;;;;;11.08;94.52;101395.06;4991219;28;19925;-64
2023/01/01 08:12:07;;;;;;;;;;;;;;;11.06;94.91;101402.88;4994455;28;19917;-64
2023/01/01 08:14:32;;;;;;;;;;;;;;;11.01;96.72;101416.81;4997502;28;19913;-64
2023/01/01 08:16:57;;;;;;;;;;;;;;;10.88;97.66;101430.84;4980481;28;19910;-65
2023/01/01 08:19:22;;;;;;;;;;;;;;;10.74;98.97;101436.25;4993683;28;20172;-65
2023/01/01 08:21:48;;;;;;;;;;;;;;;10.64;98.26;101430.31;4998272;28;20369;-66
2023/01/01 08:24:13;;;;;;;;;;;;;;;10.52;100.00;101432.25;4996586;28;20364;-66
2023/01/01 08:26:38;;;;;;;;;;;;;;;10.40;100.00;101428.09;4997249;28;19914;-66
2023/01/01 08:29:05;;;;;;;;;;;;;;;10.34;100.00;101419.53;4996573;28;19927;-66
2023/01/01 08:31:30;;;;;;;;;;;;;;;10.21;100.00;101443.03;4987394;28;19913;-67
2023/01/01 08:33:56;;;;;;;;;;;;;;;10.17;100.00;101440.47;4995909;28;19920;-66
2023/01/01 08:36:21;;;;;;;;;;;;;;;10.13;100.00;101434.47;4998509;28;19914;-67
2023/01/01 08:38:46;;;;;;;;;;;;;;;10.10;100.00;101431.06;4995658;28;19978;-67
2023/01/01 08:41:11;;;;;;;;;;;;;;;10.09;100.00;101431.94;4997040;28;19909;-66
2023/01/01 08:43:37;;;;;;;;;;;;;;;10.07;100.00;101441.44;4979909;28;19910;-66
2023/01/01 08:46:02;;;;;;;;;;;;;;;10.07;100.00;101441.44;4997688;28;19905;-66
2023/01/01 08:48:28;;;;;;;;;;;;;;;10.04;100.00;101449.25;4991192;28;19918;-66
2023/01/01 08:50:54;;;;;;;;;;;;;;;10.03;100.00;101450.97;4997030;28;19913;-66
2023/01/01 08:53:20;;;;;;;;;;;;;;;10.02;100.00;101463.97;4995478;28;19906;-66
2023/01/01 08:55:54;;;;;;;;;;;;;;;10.01;100.00;101460.50;4995959;28;19975;-66
2023/01/01 08:58:19;;;;;;;;;;;;;;;10.01;100.00;101465.69;4996841;28;19909;-66
2023/01/01 09:00:44;;;;;;;;;;;;;;;10.02;100.00;101464.81;4996436;28;19968;-66
2023/01/01 09:03:09;;;;;;;;;;;;;;;10.04;100.00;101467.38;4996731;28;20381;-65
2023/01/01 09:05:34;;;;;;;;;;;;;;;10.05;100.00;101464.78;4995808;28;19906;-66
2023/01/01 09:08:00;;;;;;;;;;;;;;;10.08;100.00;101459.56;4996448;28;19922;-66
2023/01/01 09:10:25;;;;;;;;;;;;;;;10.10;100.00;101450.03;4996555;28;20443;-66
2023/01/01 09:12:50;;;;;;;;;;;;;;;10.12;100.00;101445.69;4997363;28;19910;-66
2023/01/01 09:15:15;;;;;;;;;;;;;;;10.19;100.00;101444.78;4996717;28;19909;-66
2023/01/01 09:17:41;;;;;;;;;;;;;;;10.24;100.00;101447.28;4987522;28;19918;-66
2023/01/01 09:20:06;;;;;;;;;;;;;;;10.25;100.00;101446.44;4992870;28;19913;-65
2023/01/01 09:22:32;;;;;;;;;;;;;;;10.27;100.00;101463.69;4993690;28;19913;-66
2023/01/01 09:24:57;;;;;;;;;;;;;;;10.25;100.00;101462.84;4996448;28;19972;-66
2023/01/01 09:27:22;;;;;;;;;;;;;;;10.25;100.00;101454.19;4996761;28;19940;-66
2023/01/01 09:29:48;;;;;;;;;;;;;;;10.28;100.00;101462.81;4995497;28;20473;-66
2023/01/01 09:32:13;;;;;;;;;;;;;;;10.34;100.00;101468.78;4997798;28;20320;-66
2023/01/01 09:34:38;;;;;;;;;;;;;;;10.42;100.00;101464.38;4994494;28;19913;-66
2023/01/01 09:37:03;;;;;;;;;;;;;;;10.48;100.00;101477.25;4996706;28;19981;-66
2023/01/01 09:39:29;;;;;;;;;;;;;;;10.52;100.00;101477.16;4996449;28;19910;-66
2023/01/01 09:42:03;;;;;;;;;;;;;;;10.58;100.00;101471.03;4989409;28;19918;-66
2023/01/01 09:44:46;;;;;;;;;;;;;;;10.62;100.00;101478.78;4994647;28;20486;-66
2023/01/01 09:47:33;;;;;;;;;;;;;;;10.66;100.00;101480.44;4996616;28;19953;-65
2023/01/01 09:50:02;;;;;;;;;;;;;;;10.70;100.00;101470.88;4990753;28;19918;-66
2023/01/01 09:52:34;;;;;;;;;;;;;;;10.73;100.00;101465.66;4995563;28;20001;-67
2023/01/01 09:55:02;;;;;;;;;;;;;;;10.72;100.00;101469.09;4995168;28;19964;-69
2023/01/01 09:57:29;;;;;;;;;;;;;;;10.68;100.00;101475.22;4995147;28;19910;-69
2023/01/01 09:59:55;;;;;;;;;;;;;;;10.61;100.00;101473.59;4995406;28;19910;-69
2023/01/01 10:02:29;;;;;;;;;;;;;;;10.55;100.00;101473.69;4990796;28;20125;-69
2023/01/01 10:05:13;;;;;;;;;;;;;;;10.50;100.00;101483.28;4989831;28;19925;-69
2023/01/01 10:07:38;;;;;;;;;;;;;;;10.48;100.00;101472.91;4994653;28;19922;-69
2023/01/01 10:10:27;;;;;;;;;;;;;;;10.46;100.00;101466.88;4993913;28;19924;-69
2023/01/01 10:13:05;;;;;;;;;;;;;;;10.49;100.00;101476.38;4980560;28;20354;-69
2023/01/01 10:15:33;;;;;;;;;;;;;;;10.54;100.00;101470.25;4988134;28;19920;-69
2023/01/01 10:18:01;;;;;;;;;;;;;;;10.60;100.00;101475.34;4993218;28;19913;-69
2023/01/01 10:20:30;;;;;;;;;;;;;;;10.63;100.00;101469.25;4997505;28;19917;-67
2023/01/01 10:23:02;;;;;;;;;;;;;;;10.65;100.00;101465.75;4995785;28;19913;-66
2023/01/01 10:25:30;;;;;;;;;;;;;;;10.66;100.00;101467.47;4996357;28;19909;-66
2023/01/01 10:28:00;;;;;;;;;;;;;;;10.72;100.00;101468.25;4995421;28;19920;-65
2023/01/01 10:30:27;;;;;;;;;;;;;;;10.78;100.00;101460.41;4994278;28;19924;-66
2023/01/01 10:32:53;;;;;;;;;;;;;;;10.80;100.00;101467.28;4991625;28;21518;-66
2023/01/01 10:35:29;;;;;;;;;;;;;;;10.83;100.00;101471.56;4993940;28;19914;-66
2023/01/01 10:37:55;;;;;;;;;;;;;;;10.80;100.00;101480.22;4993931;28;19929;-65
2023/01/01 10:40:22;;;;;;;;;;;;;;;10.78;100.00;101469.03;4997237;28;19918;-66
2023/01/01 10:42:48;;;;;;;;;;;;;;;10.81;100.00;101475.91;4994288;28;20077;-66
2023/01/01 10:45:15;;;;;;;;;;;;;;;10.87;100.00;101481.88;4993706;28;19920;-66
2023/01/01 10:48:00;;;;;;;;;;;;;;;10.94;100.00;101480.03;4990322;28;19921;-66
2023/01/01 10:50:39;;;;;;;;;;;;;;;11.00;100.00;101475.59;4989780;28;20332;-66
2023/01/01 10:53:05;;;;;;;;;;;;;;;11.04;100.00;101476.44;4995189;28;19918;-66
2023/01/01 10:55:30;;;;;;;;;;;;;;;11.06;100.00;101482.44;4995622;28;19929;-66
2023/01/01 10:57:55;;;;;;;;;;;;;;;11.09;100.00;101482.41;4995171;28;19910;-66
2023/01/01 11:00:21;;;;;;;;;;;;;;;11.14;100.00;101484.91;4995239;28;19913;-66
2023/01/01 11:02:47;;;;;;;;;;;;;;;11.14;100.00;101478.00;4994914;28;19913;-66
2023/01/01 11:05:17;;;;;;;;;;;;;;;11.13;100.00;101478.00;4995500;28;19913;-66
2023/01/01 11:07:43;;;;;;;;;;;;;;;11.16;100.00;101485.75;4995281;28;19956;-66
2023/01/01 11:10:16;;;;;;;;;;;;;;;11.25;100.00;101488.22;4983102;28;19917;-66
2023/01/01 11:12:42;;;;;;;;;;;;;;;11.36;100.00;101483.69;4995673;28;20021;-66
2023/01/01 11:15:07;;;;;;;;;;;;;;;11.47;100.00;101497.34;4995655;28;19941;-66
2023/01/01 11:17:33;;;;;;;;;;;;;;;11.55;100.00;101497.22;4978096;28;20004;-65
2023/01/01 11:20:00;;;;;;;;;;;;;;;11.61;100.00;101495.38;4994919;28;19914;-65
2023/01/01 11:22:36;;;;;;;;;;;;;;;11.68;100.00;101498.72;4994792;28;19914;-65
2023/01/01 11:25:02;;;;;;;;;;;;;;;11.77;100.00;101503.78;4995659;28;19914;-65
2023/01/01 11:27:27;;;;;;;;;;;;;;;11.86;100.00;101508.81;4995591;28;19921;-66
2023/01/01 11:30:12;;;;;;;;;;;;;;;11.93;100.00;101506.97;4995563;28;19914;-65
2023/01/01 11:32:38;;;;;;;;;;;;;;;11.98;100.00;101500.78;4992187;28;19924;-65
2023/01/01 11:35:07;;;;;;;;;;;;;;;12.01;100.00;101500.72;4994459;28;20028;-65
2023/01/01 11:37:36;;;;;;;;;;;;;;;12.09;100.00;101493.63;4994862;28;19914;-64
2023/01/01 11:40:03;;;;;;;;;;;;;;;12.16;100.00;101492.63;4981991;28;19920;-65
2023/01/01 11:42:35;;;;;;;;;;;;;;;12.22;100.00;101482.09;4985479;28;20295;-65
2023/01/01 11:45:03;;;;;;;;;;;;;;;12.25;100.00;101489.00;4995367;28;19920;-65
2023/01/01 11:47:31;;;;;;;;;;;;;;;12.27;100.00;101477.69;4987352;28;19965;-65
2023/01/01 11:50:15;;;;;;;;;;;;;;;12.30;100.00;101468.09;4972456;28;19918;-66
2023/01/01 11:52:41;;;;;;;;;;;;;;;12.35;100.00;101458.47;4995105;28;19972;-66
2023/01/01 11:55:13;;;;;;;;;;;;;;;12.40;100.00;101467.91;4995837;28;19917;-65
2023/01/01 11:57:40;;;;;;;;;;;;;;;12.42;100.00;101466.09;4993515;28;19914;-66
2023/01/01 12:00:06;;;;;;;;;;;;;;;12.42;100.00;101468.69;4992497;28;19969;-65
2023/01/01 12:02:41;;;;;;;;;;;;;;;12.42;100.00;101473.06;4975790;28;19910;-65
2023/01/01 12:05:23;;;;;;;;;;;;;;;12.41;100.00;101484.34;4993202;28;19925;-65
2023/01/01 12:07:49;;;;;;;;;;;;;;;12.41;100.00;101477.41;4983407;28;19964;-65
2023/01/01 12:10:14;;;;;;;;;;;;;;;12.43;100.00;101477.34;4985278;28;19921;-65
2023/01/01 12:12:47;;;;;;;;;;;;;;;12.45;100.00;101492.03;4989685;28;19914;-65
2023/01/01 12:15:32;;;;;;;;;;;;;;;12.49;100.00;101483.28;4995350;28;20003;-65
2023/01/01 12:18:03;;;;;;;;;;;;;;;12.50;99.62;101482.41;4982917;28;19914;-65
2023/01/01 12:20:33;;;;;;;;;;;;;;;12.54;99.35;101483.19;4994504;28;19920;-65
2023/01/01 12:22:59;;;;;;;;;;;;;;;12.58;99.27;101487.44;4993997;28;19921;-65
2023/01/01 12:25:30;;;;;;;;;;;;;;;12.56;99.71;101479.66;4994080;28;20288;-65
2023/01/01 12:28:23;;;;;;;;;;;;;;;12.55;99.61;101483.19;4988850;28;19906;-65
2023/01/01 12:30:57;;;;;;;;;;;;;;;12.52;98.46;101480.63;4990338;28;20411;-65
2023/01/01 12:33:31;;;;;;;;;;;;;;;12.47;97.80;101477.28;4992320;28;19914;-65
2023/01/01 12:35:57;;;;;;;;;;;;;;;12.41;98.09;101480.00;4994212;28;19955;-65
2023/01/01 12:38:39;;;;;;;;;;;;;;;12.35;98.51;101472.31;4989600;28;19914;-65
2023/01/01 12:41:11;;;;;;;;;;;;;;;12.30;98.61;101476.75;4984833;28;19956;-65